createdAt,value
2018-03-22T00:00:17.071Z,6.47
2018-03-22T00:02:01.002Z,9.07
2018-03-22T00:03:44.241Z,6.10
2018-03-22T00:05:27.442Z,6.37
2018-03-22T00:07:10.559Z,6.87
2018-03-22T00:08:53.709Z,6.10
2018-03-22T00:10:37.613Z,6.57
2018-03-22T00:12:20.729Z,6.20
2018-03-22T00:14:03.956Z,6.40
2018-03-22T00:15:47.090Z,6.73
2018-03-22T00:17:30.973Z,7.40
2018-03-22T00:19:14.111Z,6.20
2018-03-22T00:20:57.221Z,7.43
2018-03-22T00:22:40.383Z,7.77
2018-03-22T00:24:24.269Z,7.90
2018-03-22T00:26:07.380Z,8.17
2018-03-22T00:27:50.634Z,7.97
2018-03-22T00:29:33.819Z,7.83
2018-03-22T00:31:16.929Z,7.27
2018-03-22T00:33:00.085Z,8.40
2018-03-22T00:34:44.018Z,8.20
2018-03-22T00:36:27.219Z,8.57
2018-03-22T00:38:10.340Z,8.40
2018-03-22T00:39:53.527Z,9.10
2018-03-22T00:41:36.636Z,9.33
2018-03-22T00:43:19.732Z,8.73
2018-03-22T00:45:02.855Z,8.90
2018-03-22T00:46:46.031Z,8.73
2018-03-22T00:48:29.246Z,9.40
2018-03-22T00:50:12.491Z,10.13
2018-03-22T00:51:56.413Z,9.43
2018-03-22T00:53:40.305Z,10.80
2018-03-22T00:55:23.444Z,9.93
2018-03-22T00:57:06.556Z,11.00
2018-03-22T00:58:49.677Z,11.23
2018-03-22T01:00:32.810Z,10.80
2018-03-22T01:02:16.012Z,11.37
2018-03-22T01:03:59.229Z,14.77
2018-03-22T01:05:42.428Z,12.70
2018-03-22T01:07:25.570Z,11.47
2018-03-22T01:09:08.893Z,11.60
2018-03-22T01:10:51.996Z,11.50
2018-03-22T01:12:35.106Z,14.80
2018-03-22T01:14:18.337Z,16.83
2018-03-22T01:16:01.465Z,14.30
2018-03-22T01:17:44.664Z,12.40
2018-03-22T01:19:27.900Z,11.90
2018-03-22T01:21:11.104Z,13.57
2018-03-22T01:22:54.215Z,14.77
2018-03-22T01:24:37.453Z,11.97
2018-03-22T01:26:20.660Z,11.37
2018-03-22T01:28:03.770Z,10.97
2018-03-22T01:29:46.996Z,12.57
2018-03-22T01:31:30.186Z,11.53
2018-03-22T01:33:13.302Z,12.17
2018-03-22T01:34:56.440Z,10.97
2018-03-22T01:36:39.548Z,12.30
2018-03-22T01:38:22.668Z,14.30
2018-03-22T01:40:05.793Z,13.10
2018-03-22T01:41:48.900Z,13.30
2018-03-22T01:43:32.023Z,14.13
2018-03-22T01:45:15.149Z,12.57
2018-03-22T01:46:58.260Z,13.13
2018-03-22T01:48:41.474Z,12.90
2018-03-22T01:50:24.609Z,13.80
2018-03-22T01:52:07.731Z,11.83
2018-03-22T01:53:50.853Z,12.23
2018-03-22T01:55:34.737Z,11.63
2018-03-22T01:57:17.871Z,12.37
2018-03-22T01:59:00.997Z,12.60
2018-03-22T02:00:44.119Z,13.70
2018-03-22T02:02:27.243Z,13.40
2018-03-22T02:04:10.405Z,14.17
2018-03-22T02:05:53.559Z,13.73
2018-03-22T02:07:36.785Z,13.07
2018-03-22T02:09:19.905Z,12.50
2018-03-22T02:11:03.059Z,12.80
2018-03-22T02:12:46.160Z,11.40
2018-03-22T02:14:30.078Z,11.53
2018-03-22T02:16:13.271Z,12.53
2018-03-22T02:17:56.372Z,11.70
2018-03-22T02:19:39.542Z,11.60
2018-03-22T02:21:23.437Z,11.83
2018-03-22T02:23:06.559Z,12.27
2018-03-22T02:24:49.689Z,12.60
2018-03-22T02:26:32.836Z,10.90
2018-03-22T02:28:16.713Z,11.63
2018-03-22T02:29:59.828Z,11.70
2018-03-22T02:31:43.091Z,10.73
2018-03-22T02:33:26.965Z,10.73
2018-03-22T02:35:10.085Z,12.00
2018-03-22T02:36:53.302Z,11.57
2018-03-22T02:38:36.421Z,12.27
2018-03-22T02:40:19.574Z,11.90
2018-03-22T02:42:02.816Z,11.50
2018-03-22T02:43:46.694Z,11.63
2018-03-22T02:45:29.795Z,11.40
2018-03-22T02:47:12.948Z,11.60
2018-03-22T02:48:56.065Z,10.83
2018-03-22T02:50:39.199Z,11.23
2018-03-22T02:52:22.399Z,10.80
2018-03-22T02:54:05.521Z,11.10
2018-03-22T02:55:48.651Z,10.53
2018-03-22T02:57:31.861Z,10.47
2018-03-22T02:59:15.715Z,11.00
2018-03-22T03:00:59.611Z,11.80
2018-03-22T03:02:42.727Z,11.13
2018-03-22T03:04:25.860Z,10.97
2018-03-22T03:06:09.110Z,11.90
2018-03-22T03:07:53.035Z,10.60
2018-03-22T03:09:36.934Z,11.40
2018-03-22T03:11:20.066Z,10.50
2018-03-22T03:13:03.289Z,11.87
2018-03-22T03:14:46.399Z,11.07
2018-03-22T03:16:29.511Z,11.20
2018-03-22T03:18:12.664Z,11.03
2018-03-22T03:19:56.551Z,11.30
2018-03-22T03:21:39.678Z,12.07
2018-03-22T03:23:22.800Z,11.00
2018-03-22T03:25:05.913Z,11.10
2018-03-22T03:26:49.030Z,12.17
2018-03-22T03:28:32.241Z,11.90
2018-03-22T03:30:15.358Z,12.33
2018-03-22T03:31:58.576Z,11.70
2018-03-22T03:33:41.724Z,11.10
2018-03-22T03:35:25.611Z,10.70
2018-03-22T03:37:08.799Z,11.27
2018-03-22T03:38:51.972Z,12.27
2018-03-22T03:40:35.096Z,11.97
2018-03-22T03:42:18.325Z,12.00
2018-03-22T03:44:01.458Z,11.90
2018-03-22T03:45:45.336Z,11.87
2018-03-22T03:47:28.467Z,11.50
2018-03-22T03:49:11.578Z,11.90
2018-03-22T03:50:54.700Z,12.47
2018-03-22T03:52:37.925Z,12.50
2018-03-22T03:54:21.069Z,12.00
2018-03-22T03:56:04.983Z,11.63
2018-03-22T03:57:48.222Z,12.63
2018-03-22T03:59:32.127Z,12.90
2018-03-22T04:01:15.348Z,11.33
2018-03-22T04:02:58.696Z,12.80
2018-03-22T04:04:42.578Z,13.07
2018-03-22T04:06:25.692Z,12.30
2018-03-22T04:08:09.136Z,12.50
2018-03-22T04:09:52.289Z,12.03
2018-03-22T04:11:36.160Z,12.60
2018-03-22T04:13:19.347Z,13.50
2018-03-22T04:15:03.267Z,12.77
2018-03-22T04:16:46.462Z,12.60
2018-03-22T04:18:29.967Z,12.07
2018-03-22T04:20:13.083Z,15.60
2018-03-22T04:21:56.307Z,13.77
2018-03-22T04:23:40.265Z,12.63
2018-03-22T04:25:23.394Z,12.80
2018-03-22T04:27:06.503Z,12.60
2018-03-22T04:28:50.421Z,13.20
2018-03-22T04:30:33.537Z,12.20
2018-03-22T04:32:16.812Z,13.80
2018-03-22T04:33:59.964Z,13.90
2018-03-22T04:35:43.084Z,12.60
2018-03-22T04:37:26.210Z,13.77
2018-03-22T04:39:09.624Z,12.40
2018-03-22T04:40:52.831Z,12.97
2018-03-22T04:42:35.957Z,11.90
2018-03-22T04:44:19.067Z,13.23
2018-03-22T04:46:02.214Z,13.57
2018-03-22T04:47:45.311Z,12.97
2018-03-22T04:49:28.470Z,12.67
2018-03-22T04:51:12.353Z,15.03
2018-03-22T04:52:55.498Z,13.60
2018-03-22T04:54:38.723Z,13.70
2018-03-22T04:56:21.824Z,13.77
2018-03-22T04:58:04.937Z,13.30
2018-03-22T04:59:48.071Z,13.50
2018-03-22T05:01:31.205Z,13.03
2018-03-22T05:03:15.072Z,13.83
2018-03-22T05:04:58.248Z,13.90
2018-03-22T05:06:42.117Z,13.50
2018-03-22T05:08:25.225Z,13.50
2018-03-22T05:10:08.366Z,16.80
2018-03-22T05:11:51.543Z,12.23
2018-03-22T05:13:35.451Z,18.30
2018-03-22T05:15:18.698Z,13.93
2018-03-22T05:17:02.580Z,15.17
2018-03-22T05:18:45.716Z,13.57
2018-03-22T05:20:28.836Z,13.40
2018-03-22T05:22:11.970Z,12.20
2018-03-22T05:23:55.859Z,13.37
2018-03-22T05:25:39.006Z,12.80
2018-03-22T05:27:22.912Z,13.70
2018-03-22T05:29:06.030Z,14.20
2018-03-22T05:30:49.267Z,14.50
2018-03-22T05:32:32.414Z,15.13
2018-03-22T05:34:16.341Z,13.60
2018-03-22T05:36:00.225Z,13.60
2018-03-22T05:37:43.340Z,14.50
2018-03-22T05:39:26.447Z,14.63
2018-03-22T05:41:09.573Z,14.50
2018-03-22T05:42:52.675Z,13.67
2018-03-22T05:44:35.834Z,14.87
2018-03-22T05:46:18.949Z,15.70
2018-03-22T05:48:02.066Z,15.63
2018-03-22T05:49:45.213Z,14.93
2018-03-22T05:51:29.092Z,16.43
2018-03-22T05:53:12.218Z,16.30
2018-03-22T05:54:55.350Z,17.50
2018-03-22T05:56:38.559Z,15.10
2018-03-22T05:58:21.667Z,16.70
2018-03-22T06:00:04.820Z,15.40
2018-03-22T06:01:47.962Z,16.17
2018-03-22T06:03:31.143Z,16.00
2018-03-22T06:05:14.276Z,18.47
2018-03-22T06:06:58.205Z,17.00
2018-03-22T06:08:41.444Z,17.00
2018-03-22T06:10:25.337Z,20.17
2018-03-22T06:12:08.490Z,20.30
2018-03-22T06:13:52.408Z,17.27
2018-03-22T06:15:35.528Z,17.40
2018-03-22T06:17:18.641Z,16.63
2018-03-22T06:19:01.965Z,17.80
2018-03-22T06:20:45.184Z,17.67
2018-03-22T06:22:28.389Z,48.23
2018-03-22T06:24:11.542Z,17.83
2018-03-22T06:25:54.742Z,17.47
2018-03-22T06:27:38.667Z,16.30
2018-03-22T06:29:21.801Z,16.30
2018-03-22T06:31:05.698Z,16.80
2018-03-22T06:32:48.825Z,17.53
2018-03-22T06:34:32.058Z,17.27
2018-03-22T06:36:15.973Z,16.03
2018-03-22T06:37:59.116Z,15.80
2018-03-22T06:39:43.023Z,14.73
2018-03-22T06:41:26.170Z,14.23
2018-03-22T06:43:10.052Z,15.00
2018-03-22T06:44:53.470Z,22.13
2018-03-22T06:46:36.585Z,14.90
2018-03-22T06:48:19.700Z,15.30
2018-03-22T06:50:02.925Z,15.23
2018-03-22T06:51:46.092Z,16.00
2018-03-22T06:53:29.715Z,15.73
2018-03-22T06:55:12.857Z,15.93
2018-03-22T06:56:56.046Z,16.10
2018-03-22T06:58:39.140Z,17.00
2018-03-22T07:00:22.379Z,15.50
2018-03-22T07:02:05.580Z,17.27
2018-03-22T07:03:48.768Z,16.70
2018-03-22T07:05:31.929Z,16.70
2018-03-22T07:07:15.031Z,15.73
2018-03-22T07:08:58.143Z,16.10
2018-03-22T07:10:41.286Z,16.23
2018-03-22T07:12:24.457Z,18.53
2018-03-22T07:14:07.624Z,17.20
2018-03-22T07:15:51.550Z,17.93
2018-03-22T07:17:35.573Z,18.27
2018-03-22T07:19:18.689Z,18.37
2018-03-22T07:21:01.901Z,17.20
2018-03-22T07:22:45.012Z,18.33
2018-03-22T07:24:28.126Z,18.20
2018-03-22T07:26:11.257Z,17.53
2018-03-22T07:27:54.376Z,18.33
2018-03-22T07:29:37.493Z,18.97
2018-03-22T07:31:20.707Z,19.37
2018-03-22T07:33:03.824Z,20.20
2018-03-22T07:34:47.044Z,18.90
2018-03-22T07:36:30.253Z,18.40
2018-03-22T07:38:13.389Z,20.50
2018-03-22T07:39:56.593Z,18.77
2018-03-22T07:41:39.719Z,20.10
2018-03-22T07:43:28.469Z,20.80
2018-03-22T07:45:11.604Z,18.90
2018-03-22T07:46:55.528Z,19.70
2018-03-22T07:48:38.649Z,20.00
2018-03-22T07:50:21.774Z,20.40
2018-03-22T07:52:05.661Z,19.73
2018-03-22T07:53:48.816Z,19.13
2018-03-22T07:55:31.933Z,17.70
2018-03-22T07:57:15.130Z,15.70
2018-03-22T07:58:58.293Z,17.43
2018-03-22T08:00:41.454Z,16.13
2018-03-22T08:02:24.682Z,13.47
2018-03-22T08:04:07.802Z,14.70
2018-03-22T08:05:51.019Z,16.60
2018-03-22T08:07:34.108Z,16.67
2018-03-22T08:09:17.208Z,15.97
2018-03-22T08:11:00.369Z,14.90
2018-03-22T08:12:43.484Z,16.00
2018-03-22T08:14:26.710Z,20.57
2018-03-22T08:16:09.841Z,16.97
2018-03-22T08:17:53.061Z,16.03
2018-03-22T08:19:36.974Z,15.20
2018-03-22T08:21:20.097Z,14.57
2018-03-22T08:23:03.277Z,13.90
2018-03-22T08:24:46.397Z,14.90
2018-03-22T08:26:29.651Z,14.87
2018-03-22T08:28:12.866Z,14.73
2018-03-22T08:29:56.100Z,13.53
2018-03-22T08:31:39.316Z,13.43
2018-03-22T08:33:22.439Z,15.97
2018-03-22T08:35:06.346Z,15.70
2018-03-22T08:36:49.478Z,15.30
2018-03-22T08:38:33.354Z,15.73
2018-03-22T08:40:16.538Z,15.20
2018-03-22T08:41:59.753Z,16.50
2018-03-22T08:43:42.947Z,16.10
2018-03-22T08:45:26.064Z,15.33
2018-03-22T08:47:09.315Z,14.50
2018-03-22T08:48:53.193Z,16.37
2018-03-22T08:50:36.333Z,15.40
2018-03-22T08:52:19.460Z,16.30
2018-03-22T08:54:02.569Z,16.20
2018-03-22T08:55:45.696Z,17.23
2018-03-22T08:57:28.869Z,15.97
2018-03-22T08:59:12.060Z,16.90
2018-03-22T09:00:55.932Z,17.07
2018-03-22T09:02:39.081Z,17.47
2018-03-22T09:04:22.195Z,16.30
2018-03-22T09:06:05.305Z,18.97
2018-03-22T09:07:48.424Z,19.97
2018-03-22T09:09:31.539Z,20.30
2018-03-22T09:11:14.667Z,20.60
2018-03-22T09:12:57.888Z,27.80
2018-03-22T09:14:41.068Z,18.93
2018-03-22T09:16:24.184Z,19.10
2018-03-22T09:18:07.314Z,19.20
2018-03-22T09:19:50.412Z,19.77
2018-03-22T09:21:33.530Z,19.07
2018-03-22T09:23:16.694Z,20.33
2018-03-22T09:24:59.772Z,20.40
2018-03-22T09:26:48.559Z,20.60
2018-03-22T09:28:31.774Z,20.00
2018-03-22T09:30:14.996Z,21.70
2018-03-22T09:31:58.189Z,23.33
2018-03-22T09:33:41.340Z,21.67
2018-03-22T09:35:25.217Z,22.40
2018-03-22T09:37:08.355Z,23.13
2018-03-22T09:38:51.494Z,23.20
2018-03-22T09:40:34.717Z,23.00
2018-03-22T09:42:17.846Z,23.47
2018-03-22T09:44:01.816Z,21.20
2018-03-22T09:45:44.946Z,22.03
2018-03-22T09:47:28.077Z,24.37
2018-03-22T09:49:11.203Z,22.63
2018-03-22T09:50:54.318Z,23.30
2018-03-22T09:52:37.432Z,25.60
2018-03-22T09:54:20.624Z,25.83
2018-03-22T09:56:03.776Z,24.93
2018-03-22T09:57:46.967Z,25.90
2018-03-22T09:59:30.119Z,27.60
2018-03-22T10:01:14.040Z,30.27
2018-03-22T10:02:57.172Z,28.90
2018-03-22T10:04:40.336Z,26.20
2018-03-22T10:06:23.465Z,27.77
2018-03-22T10:08:06.576Z,25.73
2018-03-22T10:09:49.765Z,25.43
2018-03-22T10:11:32.966Z,26.40
2018-03-22T10:13:16.866Z,27.27
2018-03-22T10:14:59.970Z,26.13
2018-03-22T10:16:43.124Z,27.10
2018-03-22T10:18:27.051Z,27.30
2018-03-22T10:20:10.251Z,28.17
2018-03-22T10:21:53.368Z,26.63
2018-03-22T10:23:36.487Z,27.50
2018-03-22T10:25:19.618Z,28.87
2018-03-22T10:27:02.738Z,28.37
2018-03-22T10:28:45.979Z,32.47
2018-03-22T10:30:29.877Z,34.13
2018-03-22T10:32:13.014Z,30.87
2018-03-22T10:33:56.931Z,28.93
2018-03-22T10:35:40.064Z,27.00
2018-03-22T10:37:23.184Z,30.03
2018-03-22T10:39:07.081Z,28.27
2018-03-22T10:40:50.197Z,28.00
2018-03-22T10:42:33.314Z,30.53
2018-03-22T10:44:16.439Z,29.87
2018-03-22T10:45:59.561Z,30.13
2018-03-22T10:47:42.680Z,30.10
2018-03-22T10:49:25.837Z,32.30
2018-03-22T10:51:09.015Z,31.47
2018-03-22T10:52:52.144Z,32.53
2018-03-22T10:54:35.352Z,30.07
2018-03-22T10:56:19.306Z,33.73
2018-03-22T10:58:03.204Z,34.73
2018-03-22T10:59:46.348Z,32.70
2018-03-22T11:03:53.221Z,32.10
2018-03-22T11:05:36.347Z,32.70
2018-03-22T11:07:19.561Z,32.67
2018-03-22T11:09:02.685Z,29.97
2018-03-22T11:10:45.857Z,32.00
2018-03-22T11:12:28.972Z,32.37
2018-03-22T11:14:12.416Z,31.10
2018-03-22T11:15:55.649Z,33.73
2018-03-22T11:17:38.831Z,35.17
2018-03-22T11:19:21.988Z,33.50
2018-03-22T11:21:05.114Z,33.90
2018-03-22T11:22:48.315Z,33.87
2018-03-22T11:24:31.480Z,33.30
2018-03-22T11:26:14.597Z,33.40
2018-03-22T11:27:57.762Z,33.53
2018-03-22T11:29:40.917Z,31.87
2018-03-22T11:31:24.816Z,32.03
2018-03-22T11:33:07.924Z,33.20
2018-03-22T11:34:51.093Z,34.33
2018-03-22T11:36:37.548Z,33.57
2018-03-22T11:38:20.663Z,34.07
2018-03-22T11:40:03.843Z,38.07
2018-03-22T11:41:46.967Z,33.33
2018-03-22T11:43:30.076Z,33.17
2018-03-22T11:45:13.223Z,36.47
2018-03-22T11:46:56.328Z,37.83
2018-03-22T11:48:39.471Z,33.77
2018-03-22T11:50:22.584Z,33.10
2018-03-22T11:52:05.710Z,33.83
2018-03-22T11:53:48.922Z,40.30
2018-03-22T11:55:31.992Z,40.13
2018-03-22T11:57:15.144Z,37.13
2018-03-22T11:58:58.245Z,33.00
2018-03-22T12:00:41.373Z,36.17
2018-03-22T12:02:24.474Z,34.13
2018-03-22T12:04:07.630Z,34.33
2018-03-22T12:05:50.753Z,34.40
2018-03-22T12:07:34.662Z,35.63
2018-03-22T12:09:17.773Z,35.30
2018-03-22T12:11:00.944Z,34.70
2018-03-22T12:12:44.833Z,39.93
2018-03-22T12:14:27.938Z,37.10
2018-03-22T12:16:11.184Z,36.63
2018-03-22T12:17:55.110Z,33.77
2018-03-22T12:19:38.244Z,34.80
2018-03-22T12:21:22.154Z,33.53
2018-03-22T12:23:05.264Z,34.20
2018-03-22T12:24:48.385Z,34.23
2018-03-22T12:26:31.619Z,33.60
2018-03-22T12:28:15.493Z,35.83
2018-03-22T12:29:58.622Z,34.63
2018-03-22T12:31:41.803Z,34.57
2018-03-22T12:33:25.719Z,34.13
2018-03-22T12:37:40.681Z,34.07
2018-03-22T12:39:23.788Z,33.60
2018-03-22T12:41:06.931Z,34.03
2018-03-22T12:42:50.130Z,34.20
2018-03-22T12:44:33.256Z,32.60
2018-03-22T12:46:16.405Z,31.23
2018-03-22T12:47:59.526Z,32.87
2018-03-22T12:49:42.641Z,32.60
2018-03-22T12:51:25.814Z,32.37
2018-03-22T12:53:09.032Z,32.63
2018-03-22T12:54:52.149Z,33.73
2018-03-22T12:56:36.786Z,34.03
2018-03-22T12:58:19.903Z,32.37
2018-03-22T13:00:03.022Z,37.27
2018-03-22T13:01:46.270Z,31.80
2018-03-22T13:03:29.387Z,33.43
2018-03-22T13:05:12.527Z,34.20
2018-03-22T13:06:55.751Z,31.93
2018-03-22T13:08:38.913Z,32.60
2018-03-22T13:10:22.033Z,35.03
2018-03-22T13:12:05.173Z,34.97
2018-03-22T13:13:48.384Z,33.60
2018-03-22T13:15:31.763Z,32.50
2018-03-22T13:17:15.021Z,32.27
2018-03-22T13:18:58.899Z,33.40
2018-03-22T13:20:42.078Z,31.03
2018-03-22T13:22:28.071Z,32.20
2018-03-22T13:24:11.302Z,33.30
2018-03-22T13:25:54.403Z,33.80
2018-03-22T13:27:37.596Z,31.07
2018-03-22T13:29:20.727Z,30.63
2018-03-22T13:31:03.945Z,33.90
2018-03-22T13:32:47.175Z,31.63
2018-03-22T13:34:30.289Z,30.23
2018-03-22T13:36:13.483Z,30.13
2018-03-22T13:37:56.608Z,32.90
2018-03-22T13:39:39.716Z,33.27
2018-03-22T13:41:22.858Z,35.17
2018-03-22T13:43:06.182Z,32.60
2018-03-22T13:44:50.070Z,33.60
2018-03-22T13:46:33.234Z,33.03
2018-03-22T13:48:16.352Z,38.40
2018-03-22T13:49:59.465Z,34.17
2018-03-22T13:51:42.696Z,35.07
2018-03-22T13:53:26.722Z,34.87
2018-03-22T13:55:10.634Z,33.60
2018-03-22T13:56:53.780Z,34.43
2018-03-22T13:58:37.714Z,33.80
2018-03-22T14:00:21.650Z,34.23
2018-03-22T14:02:04.870Z,36.83
2018-03-22T14:03:48.736Z,33.87
2018-03-22T14:05:31.920Z,35.07
2018-03-22T14:07:15.044Z,35.03
2018-03-22T14:08:58.137Z,34.07
2018-03-22T14:10:41.260Z,37.30
2018-03-22T14:12:25.174Z,37.80
2018-03-22T14:14:08.293Z,33.70
2018-03-22T14:15:51.407Z,35.20
2018-03-22T14:17:34.528Z,36.27
2018-03-22T14:19:17.712Z,36.17
2018-03-22T14:21:00.841Z,34.63
2018-03-22T14:22:43.984Z,35.83
2018-03-22T14:24:27.207Z,35.50
2018-03-22T14:26:10.311Z,36.13
2018-03-22T14:27:53.536Z,34.77
2018-03-22T14:29:36.751Z,34.17
2018-03-22T14:31:19.882Z,35.90
2018-03-22T14:33:03.118Z,36.37
2018-03-22T14:34:47.022Z,35.63
2018-03-22T14:36:31.074Z,35.73
2018-03-22T14:38:14.204Z,33.40
2018-03-22T14:39:58.120Z,32.37
2018-03-22T14:41:41.238Z,29.13
2018-03-22T14:43:24.365Z,30.97
2018-03-22T14:45:08.295Z,31.40
2018-03-22T14:46:51.377Z,34.13
2018-03-22T14:48:34.566Z,31.80
2018-03-22T14:50:17.697Z,32.00
2018-03-22T14:52:00.835Z,32.10
2018-03-22T14:53:43.997Z,33.97
2018-03-22T14:55:27.913Z,31.60
2018-03-22T14:57:11.075Z,31.70
2018-03-22T14:58:54.248Z,32.83
2018-03-22T15:00:37.378Z,32.77
2018-03-22T15:02:20.572Z,30.67
2018-03-22T15:04:03.789Z,34.13
2018-03-22T15:05:46.918Z,34.43
2018-03-22T15:07:30.851Z,31.83
2018-03-22T15:09:14.001Z,31.47
2018-03-22T15:10:57.109Z,30.10
2018-03-22T15:12:40.246Z,28.13
2018-03-22T15:14:23.371Z,29.50
2018-03-22T15:16:06.579Z,27.37
2018-03-22T15:17:49.722Z,27.07
2018-03-22T15:19:32.866Z,29.00
2018-03-22T15:21:16.004Z,29.30
2018-03-22T15:22:59.895Z,28.80
2018-03-22T15:24:43.052Z,28.03
2018-03-22T15:26:26.189Z,28.20
2018-03-22T15:28:09.369Z,25.93
2018-03-22T15:29:52.490Z,28.70
2018-03-22T15:31:36.401Z,31.43
2018-03-22T15:33:19.538Z,31.30
2018-03-22T15:35:02.666Z,29.73
2018-03-22T15:36:46.574Z,28.50
2018-03-22T15:38:29.799Z,31.57
2018-03-22T15:40:12.994Z,32.07
2018-03-22T15:41:56.168Z,33.40
2018-03-22T15:43:40.081Z,32.40
2018-03-22T15:45:23.368Z,32.47
2018-03-22T15:47:06.473Z,32.20
2018-03-22T15:48:49.599Z,32.67
2018-03-22T15:50:32.730Z,33.03
2018-03-22T15:52:15.832Z,34.27
2018-03-22T15:53:58.978Z,32.70
2018-03-22T15:55:42.617Z,33.13
2018-03-22T15:57:26.516Z,29.60
2018-03-22T15:59:09.648Z,33.07
2018-03-22T16:00:52.782Z,32.37
2018-03-22T16:02:36.657Z,30.73
2018-03-22T16:04:19.850Z,33.13
2018-03-22T16:06:03.733Z,30.37
2018-03-22T16:07:46.856Z,30.30
2018-03-22T16:09:29.996Z,31.57
2018-03-22T16:11:13.202Z,28.33
2018-03-22T16:12:56.308Z,31.93
2018-03-22T16:14:39.551Z,29.40
2018-03-22T16:16:23.512Z,30.30
2018-03-22T16:18:06.684Z,31.17
2018-03-22T16:19:50.041Z,30.77
2018-03-22T16:21:33.231Z,32.00
2018-03-22T16:23:16.362Z,30.30
2018-03-22T16:24:59.492Z,31.73
2018-03-22T16:26:43.378Z,34.47
2018-03-22T16:28:26.510Z,33.03
2018-03-22T16:30:09.629Z,36.77
2018-03-22T16:31:52.781Z,33.73
2018-03-22T16:33:36.708Z,33.87
2018-03-22T16:35:20.837Z,34.33
2018-03-22T16:37:03.951Z,36.87
2018-03-22T16:38:47.076Z,38.13
2018-03-22T16:40:30.978Z,35.80
2018-03-22T16:42:14.101Z,38.60
2018-03-22T16:43:57.315Z,35.10
2018-03-22T16:45:40.456Z,34.80
2018-03-22T16:47:24.346Z,43.57
2018-03-22T16:49:07.583Z,37.30
2018-03-22T16:50:50.717Z,35.00
2018-03-22T16:52:34.658Z,37.23
2018-03-22T16:54:17.879Z,35.67
2018-03-22T16:56:01.063Z,36.60
2018-03-22T16:57:44.181Z,36.10
2018-03-22T16:59:27.347Z,46.30
2018-03-22T17:01:11.277Z,38.67
2018-03-22T17:02:55.210Z,38.27
2018-03-22T17:04:39.100Z,36.47
2018-03-22T17:06:22.224Z,35.27
2018-03-22T17:08:05.349Z,34.77
2018-03-22T17:09:48.489Z,35.10
2018-03-22T17:11:31.714Z,36.97
2018-03-22T17:13:15.616Z,34.57
2018-03-22T17:14:58.766Z,36.43
2018-03-22T17:16:42.669Z,35.33
2018-03-22T17:18:25.830Z,36.20
2018-03-22T17:20:08.954Z,42.03
2018-03-22T17:21:52.083Z,40.03
2018-03-22T17:23:35.234Z,37.23
2018-03-22T17:25:18.455Z,36.80
2018-03-22T17:27:01.648Z,35.57
2018-03-22T17:28:44.771Z,38.47
2018-03-22T17:30:27.921Z,36.20
2018-03-22T17:32:11.061Z,33.83
2018-03-22T17:33:54.975Z,38.70
2018-03-22T17:35:38.109Z,37.40
2018-03-22T17:37:22.023Z,36.67
2018-03-22T17:39:05.178Z,36.80
2018-03-22T17:40:48.352Z,35.20
2018-03-22T17:42:33.017Z,38.47
2018-03-22T17:44:16.231Z,36.33
2018-03-22T17:46:00.141Z,33.93
2018-03-22T17:47:43.286Z,36.00
2018-03-22T17:49:26.448Z,34.93
2018-03-22T17:51:09.596Z,33.57
2018-03-22T17:52:52.719Z,35.77
2018-03-22T17:54:35.870Z,39.50
2018-03-22T17:56:19.093Z,36.90
2018-03-22T17:58:03.015Z,34.73
2018-03-22T17:59:46.914Z,34.73
2018-03-22T18:01:30.075Z,32.47
2018-03-22T18:03:13.968Z,35.13
2018-03-22T18:04:57.088Z,34.63
2018-03-22T18:06:40.317Z,36.90
2018-03-22T18:08:23.433Z,34.80
2018-03-22T18:10:06.546Z,33.03
2018-03-22T18:11:49.689Z,34.43
2018-03-22T18:13:33.594Z,33.13
2018-03-22T18:15:16.819Z,34.90
2018-03-22T18:17:00.041Z,36.23
2018-03-22T18:18:43.153Z,34.97
2018-03-22T18:20:26.273Z,35.50
2018-03-22T18:22:10.172Z,36.20
2018-03-22T18:23:53.290Z,36.07
2018-03-22T18:25:36.422Z,35.37
2018-03-22T18:27:19.588Z,35.63
2018-03-22T18:29:03.605Z,36.33
2018-03-22T18:30:46.799Z,37.03
2018-03-22T18:32:29.935Z,37.97
2018-03-22T18:34:13.102Z,37.37
2018-03-22T18:35:56.233Z,37.07
2018-03-22T18:37:39.400Z,34.27
2018-03-22T18:39:23.294Z,36.77
2018-03-22T18:41:06.442Z,35.23
2018-03-22T18:42:49.661Z,36.07
2018-03-22T18:44:32.795Z,36.87
2018-03-22T18:46:16.698Z,36.90
2018-03-22T18:47:59.899Z,36.93
2018-03-22T18:49:43.055Z,38.37
2018-03-22T18:51:26.968Z,37.30
2018-03-22T18:53:10.121Z,37.00
2018-03-22T18:54:53.308Z,36.60
2018-03-22T18:56:37.939Z,35.90
2018-03-22T18:58:21.064Z,37.50
2018-03-22T19:00:04.183Z,37.00
2018-03-22T19:01:47.341Z,37.73
2018-03-22T19:03:30.479Z,38.27
2018-03-22T19:05:13.631Z,37.77
2018-03-22T19:06:56.866Z,33.50
2018-03-22T19:08:40.002Z,36.63
2018-03-22T19:10:23.933Z,35.47
2018-03-22T19:12:07.856Z,34.13
2018-03-22T19:13:51.085Z,35.07
2018-03-22T19:15:34.965Z,33.80
2018-03-22T19:17:18.127Z,33.83
2018-03-22T19:19:01.273Z,35.17
2018-03-22T19:20:44.456Z,33.53
2018-03-22T19:22:27.588Z,33.23
2018-03-22T19:24:11.515Z,34.60
2018-03-22T19:25:55.440Z,34.77
2018-03-22T19:27:38.595Z,35.40
2018-03-22T19:29:21.721Z,35.33
2018-03-22T19:31:04.843Z,35.10
2018-03-22T19:32:48.095Z,34.97
2018-03-22T19:34:31.233Z,36.30
2018-03-22T19:36:14.365Z,35.50
2018-03-22T19:37:58.271Z,34.30
2018-03-22T19:39:41.503Z,33.63
2018-03-22T19:41:24.732Z,33.70
2018-03-22T19:43:08.624Z,33.50
2018-03-22T19:44:51.793Z,33.20
2018-03-22T19:46:35.683Z,33.30
2018-03-22T19:48:18.833Z,34.80
2018-03-22T19:50:02.725Z,33.50
2018-03-22T19:51:45.876Z,34.43
2018-03-22T19:53:29.003Z,32.37
2018-03-22T19:55:12.954Z,33.53
2018-03-22T19:56:56.109Z,32.63
2018-03-22T19:58:39.247Z,34.00
2018-03-22T20:00:22.429Z,33.90
2018-03-22T20:02:05.615Z,33.03
2018-03-22T20:03:48.823Z,34.17
2018-03-22T20:05:32.761Z,33.87
2018-03-22T20:07:15.898Z,33.60
2018-03-22T20:08:59.031Z,36.70
2018-03-22T20:10:42.185Z,34.17
2018-03-22T20:12:26.134Z,34.43
2018-03-22T20:14:09.349Z,33.73
2018-03-22T20:15:52.563Z,35.17
2018-03-22T20:17:36.493Z,33.20
2018-03-22T20:19:19.628Z,34.03
2018-03-22T20:21:02.758Z,35.13
2018-03-22T20:22:46.662Z,33.80
2018-03-22T20:24:29.905Z,34.17
2018-03-22T20:26:13.901Z,34.93
2018-03-22T20:27:57.000Z,35.77
2018-03-22T20:29:40.147Z,35.23
2018-03-22T20:31:23.297Z,32.67
2018-03-22T20:33:07.205Z,36.77
2018-03-22T20:34:50.330Z,35.67
2018-03-22T20:36:33.459Z,34.57
2018-03-22T20:38:17.368Z,33.87
2018-03-22T20:40:00.509Z,36.13
2018-03-22T20:41:44.412Z,34.40
2018-03-22T20:43:27.545Z,33.73
2018-03-22T20:45:10.667Z,34.60
2018-03-22T20:46:53.891Z,34.10
2018-03-22T20:48:37.819Z,40.30
2018-03-22T20:50:20.926Z,37.67
2018-03-22T20:52:04.051Z,36.87
2018-03-22T20:53:47.248Z,35.70
2018-03-22T20:55:30.390Z,35.07
2018-03-22T20:57:13.517Z,35.23
2018-03-22T20:58:57.492Z,36.87
2018-03-22T21:00:42.950Z,37.37
2018-03-22T21:02:26.474Z,36.20
2018-03-22T21:04:09.648Z,37.63
2018-03-22T21:05:52.766Z,35.30
2018-03-22T21:07:35.980Z,38.70
2018-03-22T21:09:19.213Z,38.70
2018-03-22T21:11:02.333Z,37.30
2018-03-22T21:12:46.260Z,40.47
2018-03-22T21:14:29.400Z,36.67
2018-03-22T21:16:13.300Z,39.50
2018-03-22T21:17:56.421Z,38.70
2018-03-22T21:19:39.569Z,37.23
2018-03-22T21:21:23.453Z,38.47
2018-03-22T21:23:06.578Z,38.70
2018-03-22T21:24:49.722Z,37.57
2018-03-22T21:26:33.662Z,40.23
2018-03-22T21:28:17.553Z,40.97
2018-03-22T21:30:00.692Z,39.70
2018-03-22T21:31:43.812Z,37.40
2018-03-22T21:33:26.981Z,40.73
2018-03-22T21:35:10.099Z,37.67
2018-03-22T21:36:53.261Z,38.03
2018-03-22T21:38:36.512Z,36.97
2018-03-22T21:40:19.685Z,39.60
2018-03-22T21:42:07.845Z,37.17
2018-03-22T21:44:09.617Z,36.67
2018-03-22T21:45:53.518Z,35.70
2018-03-22T21:47:36.731Z,37.00
2018-03-22T21:49:20.631Z,34.93
2018-03-22T21:51:03.752Z,36.03
2018-03-22T21:52:46.864Z,36.97
2018-03-22T21:54:30.019Z,35.33
2018-03-22T21:56:13.147Z,36.23
2018-03-22T21:57:56.264Z,36.10
2018-03-22T21:59:39.497Z,36.47
2018-03-22T22:01:23.568Z,36.20
2018-03-22T22:03:06.692Z,42.67
2018-03-22T22:04:49.813Z,35.80
2018-03-22T22:06:32.976Z,34.37
2018-03-22T22:08:16.876Z,33.00
2018-03-22T22:10:00.137Z,34.40
2018-03-22T22:11:44.017Z,35.00
2018-03-22T22:13:27.153Z,32.97
2018-03-22T22:15:10.396Z,31.93
2018-03-22T22:16:53.550Z,30.87